Time;durP1;ratioP1;P1;durP2;ratioP2;P2;SDS_P1;SDS_P2;PMS_P1;PMS_P2;Temp;Humidity;BMP_temperature;BMP_pressure;BME280_temperature;BME280_humidity;BME280_pressure;Samples;Min_cycle;Max_cycle;Signal;HPM_P1;HPM_P2
2021/11/13 00:00:19;;;;;;;33.50;24.97;;;10.90;99.90;;;;;;5067747;28;20235;-81
2021/11/13 00:02:46;;;;;;;31.93;24.00;;;10.90;99.90;;;;;;5067518;28;20208;-81
2021/11/13 00:05:14;;;;;;;31.60;23.10;;;11.00;99.90;;;;;;5067531;28;20209;-81
2021/11/13 00:07:41;;;;;;;31.23;22.77;;;11.00;99.90;;;;;;5066981;28;20523;-80
2021/11/13 00:10:11;;;;;;;31.50;22.13;;;11.00;99.90;;;;;;5074752;28;20239;-81
2021/11/13 00:12:38;;;;;;;33.20;22.77;;;11.00;99.90;;;;;;5088158;28;20203;-80
2021/11/13 00:15:08;;;;;;;26.90;19.57;;;11.00;99.90;;;;;;5086594;28;20204;-81
2021/11/13 00:17:36;;;;;;;22.83;19.40;;;11.10;99.90;;;;;;5047454;28;20198;-81
2021/11/13 00:20:05;;;;;;;22.20;16.90;;;11.10;99.90;;;;;;5055762;28;20205;-81
2021/11/13 00:22:32;;;;;;;23.07;16.47;;;11.10;99.90;;;;;;5067237;28;20483;-77
2021/11/13 00:24:59;;;;;;;18.70;14.73;;;11.10;99.90;;;;;;5066455;28;20205;-81
2021/11/13 00:27:25;;;;;;;22.90;17.33;;;11.10;99.90;;;;;;5067754;28;20221;-79
2021/11/13 00:29:52;;;;;;;27.80;19.03;;;11.10;99.90;;;;;;5067269;28;20205;-80
2021/11/13 00:32:19;;;;;;;23.77;19.13;;;11.10;99.90;;;;;;5067870;28;20201;-82
2021/11/13 00:34:47;;;;;;;25.37;18.77;;;11.20;99.90;;;;;;5067808;28;20212;-82
2021/11/13 00:37:14;;;;;;;25.93;17.77;;;11.20;99.90;;;;;;5067784;28;20216;-82
2021/11/13 00:39:41;;;;;;;24.57;17.33;;;11.20;99.90;;;;;;5067353;28;20202;-80
2021/11/13 00:42:08;;;;;;;26.90;15.93;;;11.20;99.90;;;;;;5067550;28;20208;-81
2021/11/13 00:44:37;;;;;;;21.10;14.20;;;11.30;99.90;;;;;;5068080;28;20205;-83
2021/11/13 00:47:05;;;;;;;26.27;17.90;;;11.30;99.90;;;;;;5068246;28;20205;-79
2021/11/13 00:49:32;;;;;;;27.60;17.90;;;11.40;99.90;;;;;;5067102;28;20307;-81
2021/11/13 00:52:00;;;;;;;25.13;16.60;;;11.40;99.90;;;;;;5067572;28;20205;-80
2021/11/13 00:54:27;;;;;;;29.23;16.97;;;11.50;99.90;;;;;;5077411;28;20212;-81
2021/11/13 00:56:54;;;;;;;37.43;16.27;;;11.50;99.90;;;;;;5070899;28;20707;-83
2021/11/13 00:59:21;;;;;;;38.00;14.40;;;11.50;99.90;;;;;;5066411;28;20189;-82
2021/11/13 01:01:48;;;;;;;32.83;11.03;;;11.60;99.90;;;;;;5066753;28;20201;-80
2021/11/13 01:04:15;;;;;;;31.60;12.77;;;11.70;99.90;;;;;;5066953;28;20240;-79
2021/11/13 01:06:42;;;;;;;26.83;10.93;;;11.80;99.90;;;;;;5066439;28;20211;-81
2021/11/13 01:09:10;;;;;;;24.87;10.03;;;11.90;99.90;;;;;;5078827;28;20232;-81
2021/11/13 01:11:37;;;;;;;32.07;9.73;;;11.90;99.90;;;;;;5087460;28;20196;-82
2021/11/13 01:14:04;;;;;;;25.97;10.47;;;11.90;99.90;;;;;;5086506;28;20204;-80
2021/11/13 01:16:31;;;;;;;33.97;12.70;;;11.90;99.90;;;;;;5087138;28;20215;-81
2021/11/13 01:18:58;;;;;;;36.37;8.40;;;11.90;99.90;;;;;;5086198;28;20206;-80
2021/11/13 01:21:25;;;;;;;29.17;6.30;;;12.00;99.90;;;;;;5087739;28;20627;-81
2021/11/13 01:23:52;;;;;;;25.30;6.30;;;12.00;99.90;;;;;;5087267;28;20212;-81
2021/11/13 01:26:21;;;;;;;38.90;7.87;;;12.00;99.90;;;;;;5069645;28;20201;-82
2021/11/13 01:28:48;;;;;;;27.23;7.07;;;12.00;99.90;;;;;;5083190;28;20702;-81
2021/11/13 01:31:15;;;;;;;40.97;8.20;;;12.00;99.90;;;;;;5090336;28;20204;-81
2021/11/13 01:33:45;;;;;;;28.33;6.07;;;12.10;99.90;;;;;;5091892;28;20200;-79
2021/11/13 01:36:13;;;;;;;25.13;5.43;;;12.10;99.90;;;;;;5090935;28;20223;-82
2021/11/13 01:38:41;;;;;;;18.23;4.40;;;12.10;99.90;;;;;;5052914;28;20194;-83
2021/11/13 01:41:09;;;;;;;25.40;4.93;;;12.10;99.90;;;;;;5051512;28;20202;-82
2021/11/13 01:43:40;;;;;;;26.67;5.30;;;12.20;99.90;;;;;;5050837;28;20205;-79
2021/11/13 01:46:08;;;;;;;24.77;4.87;;;12.20;99.90;;;;;;5068459;28;20196;-82
2021/11/13 01:48:35;;;;;;;27.47;4.83;;;12.20;99.90;;;;;;5071401;28;20222;-80
2021/11/13 01:51:13;;;;;;;20.70;5.03;;;12.20;99.90;;;;;;5089138;28;20240;-81
2021/11/13 01:53:40;;;;;;;16.00;3.30;;;12.20;99.90;;;;;;5091226;28;20189;-81
2021/11/13 01:56:07;;;;;;;18.57;4.70;;;12.20;99.90;;;;;;5090464;28;20205;-83
2021/11/13 01:58:34;;;;;;;19.03;4.03;;;12.20;99.90;;;;;;5089237;28;20197;-80
2021/11/13 02:01:02;;;;;;;15.40;3.43;;;12.10;99.90;;;;;;5089743;28;20290;-79
2021/11/13 02:03:29;;;;;;;17.03;3.80;;;12.10;99.90;;;;;;5085579;28;20387;-81
2021/11/13 02:05:56;;;;;;;15.00;3.67;;;12.10;99.90;;;;;;5070849;28;20197;-81
2021/11/13 02:08:22;;;;;;;17.77;3.93;;;12.10;99.90;;;;;;5069444;28;20220;-82
2021/11/13 02:10:49;;;;;;;16.50;5.23;;;12.10;99.90;;;;;;5070350;28;20209;-81
2021/11/13 02:13:16;;;;;;;17.50;4.23;;;12.10;99.90;;;;;;5069179;28;20775;-80
2021/11/13 02:15:43;;;;;;;17.17;4.23;;;12.10;99.90;;;;;;5069622;28;20208;-82
2021/11/13 02:18:12;;;;;;;21.50;5.00;;;12.10;99.90;;;;;;5071010;28;20193;-80
2021/11/13 02:20:42;;;;;;;18.43;5.07;;;12.10;99.90;;;;;;5089295;22;20649;-82
2021/11/13 02:23:12;;;;;;;22.90;6.00;;;12.10;99.90;;;;;;5089823;28;20196;-81
2021/11/13 02:25:40;;;;;;;15.33;4.60;;;12.20;99.90;;;;;;5089948;28;20215;-84
2021/11/13 02:28:10;;;;;;;21.07;5.10;;;12.20;99.90;;;;;;5107227;28;20519;-81
2021/11/13 02:30:37;;;;;;;19.57;6.00;;;12.20;99.90;;;;;;5092616;28;20523;-82
2021/11/13 02:33:04;;;;;;;20.77;5.90;;;12.20;99.90;;;;;;5110599;28;20204;-84
2021/11/13 02:35:32;;;;;;;15.83;4.60;;;12.20;99.90;;;;;;5112313;28;20196;-81
2021/11/13 02:38:10;;;;;;;4.90;1.97;;;12.30;99.90;;;;;;5110268;28;20207;-80
2021/11/13 02:40:37;;;;;;;9.27;2.50;;;12.00;99.90;;;;;;5109112;28;20218;-83
2021/11/13 02:43:05;;;;;;;13.63;3.77;;;11.90;99.90;;;;;;5110520;28;20614;-79
2021/11/13 02:45:32;;;;;;;16.33;3.90;;;11.90;99.90;;;;;;5108478;28;20203;-81
2021/11/13 02:48:02;;;;;;;16.27;4.57;;;12.00;99.90;;;;;;5109258;28;20848;-81
2021/11/13 02:50:30;;;;;;;19.40;5.00;;;12.00;99.90;;;;;;5108749;28;20227;-81
2021/11/13 02:53:00;;;;;;;20.90;5.50;;;12.10;99.90;;;;;;5109271;28;20200;-79
2021/11/13 02:55:28;;;;;;;11.60;4.00;;;12.20;99.90;;;;;;5109073;28;20216;-82
2021/11/13 02:57:55;;;;;;;22.93;4.80;;;12.20;99.90;;;;;;5109361;28;20196;-80
2021/11/13 03:00:24;;;;;;;24.50;4.63;;;12.20;99.90;;;;;;5109055;28;20227;-82
2021/11/13 03:02:51;;;;;;;23.37;5.67;;;12.20;99.90;;;;;;5109838;28;20192;-80
2021/11/13 03:05:25;;;;;;;22.43;5.10;;;12.20;99.90;;;;;;5109011;28;20392;-80
2021/11/13 03:07:53;;;;;;;31.97;6.63;;;12.20;99.90;;;;;;5109741;28;20225;-80
2021/11/13 03:10:24;;;;;;;26.77;7.07;;;12.20;99.90;;;;;;5109864;28;20204;-80
2021/11/13 03:12:51;;;;;;;20.07;5.03;;;12.20;99.90;;;;;;5108731;28;20192;-81
2021/11/13 03:15:20;;;;;;;29.17;6.33;;;12.20;99.90;;;;;;5109480;28;20198;-80
2021/11/13 03:17:48;;;;;;;21.60;6.23;;;12.30;99.90;;;;;;5110278;28;20203;-79
2021/11/13 03:20:18;;;;;;;17.07;4.30;;;12.30;99.90;;;;;;5109504;28;20246;-81
2021/11/13 03:22:46;;;;;;;21.43;4.73;;;12.30;99.90;;;;;;5110313;28;20297;-81
2021/11/13 03:25:15;;;;;;;19.73;4.40;;;12.30;99.90;;;;;;5110009;28;20522;-82
2021/11/13 03:27:46;;;;;;;20.87;5.40;;;12.30;99.90;;;;;;5109184;28;20847;-82
2021/11/13 03:30:14;;;;;;;21.10;5.17;;;12.40;99.90;;;;;;5108939;28;20513;-81
2021/11/13 03:32:41;;;;;;;23.77;5.23;;;12.30;99.90;;;;;;5109041;28;20204;-82
2021/11/13 03:35:09;;;;;;;17.57;5.37;;;12.40;99.90;;;;;;5109281;28;20475;-82
2021/11/13 03:37:36;;;;;;;18.80;5.27;;;12.40;99.90;;;;;;5109530;28;20223;-83
2021/11/13 03:40:03;;;;;;;25.50;5.93;;;12.40;99.90;;;;;;5109144;28;20188;-80
2021/11/13 03:42:32;;;;;;;18.63;6.03;;;12.40;99.90;;;;;;5109301;28;20215;-83
2021/11/13 03:45:01;;;;;;;14.67;4.30;;;12.40;99.90;;;;;;5107703;28;20207;-83
2021/11/13 03:47:28;;;;;;;22.37;5.60;;;12.40;99.90;;;;;;5108093;28;20203;-83
2021/11/13 03:49:55;;;;;;;16.63;4.73;;;12.40;99.90;;;;;;5108387;28;20231;-83
2021/11/13 03:52:22;;;;;;;17.30;4.70;;;12.50;99.90;;;;;;5109265;28;20203;-83
2021/11/13 03:54:49;;;;;;;15.47;3.93;;;12.50;99.90;;;;;;5109330;28;20196;-81
2021/11/13 03:57:16;;;;;;;18.60;3.87;;;12.50;99.90;;;;;;5109733;28;20634;-82
2021/11/13 03:59:43;;;;;;;15.57;3.43;;;12.50;99.90;;;;;;5108791;28;20204;-82
2021/11/13 04:02:11;;;;;;;16.37;3.93;;;12.40;99.90;;;;;;5109194;28;20198;-81
2021/11/13 04:04:38;;;;;;;19.40;3.20;;;12.40;99.90;;;;;;5109121;28;20215;-82
2021/11/13 04:07:06;;;;;;;15.30;3.60;;;12.40;99.90;;;;;;5107915;28;20284;-84
2021/11/13 04:09:33;;;;;;;9.63;2.90;;;12.40;99.90;;;;;;5107828;28;20232;-83
2021/11/13 04:12:04;;;;;;;14.50;3.13;;;12.30;99.90;;;;;;5108273;28;20203;-82
2021/11/13 04:14:31;;;;;;;11.10;2.57;;;12.30;99.90;;;;;;5109031;28;20231;-83
2021/11/13 04:16:58;;;;;;;10.80;2.87;;;12.30;99.90;;;;;;5107211;28;20196;-85
2021/11/13 04:19:27;;;;;;;10.37;2.57;;;12.20;99.90;;;;;;5108252;28;20207;-85
2021/11/13 04:21:54;;;;;;;8.83;2.73;;;12.20;99.90;;;;;;5108233;28;20180;-83
2021/11/13 04:24:22;;;;;;;13.37;4.20;;;12.10;99.90;;;;;;5108255;28;20222;-78
2021/11/13 04:26:49;;;;;;;13.17;4.23;;;12.10;99.90;;;;;;5108022;28;20215;-79
2021/11/13 04:29:16;;;;;;;10.63;2.90;;;12.20;99.90;;;;;;5107823;28;20231;-80
2021/11/13 04:31:43;;;;;;;12.07;2.70;;;12.10;99.90;;;;;;5108388;28;20207;-84
2021/11/13 04:34:14;;;;;;;14.97;2.90;;;12.20;99.90;;;;;;5108119;28;20204;-81
2021/11/13 04:36:44;;;;;;;12.43;2.77;;;12.10;99.90;;;;;;5107725;28;20196;-82
2021/11/13 04:39:12;;;;;;;8.97;2.30;;;12.10;99.90;;;;;;5107820;28;20211;-82
2021/11/13 04:41:41;;;;;;;11.30;2.50;;;12.10;99.90;;;;;;5107993;28;20204;-79
2021/11/13 04:44:08;;;;;;;10.10;2.27;;;12.10;99.90;;;;;;5107169;28;20538;-80
2021/11/13 04:46:34;;;;;;;11.13;2.23;;;12.00;99.90;;;;;;5108017;28;20203;-81
2021/11/13 04:49:01;;;;;;;9.10;1.70;;;12.00;99.90;;;;;;5107451;28;20639;-82
2021/11/13 04:51:28;;;;;;;18.30;2.70;;;12.00;99.90;;;;;;5106823;28;20210;-80
2021/11/13 04:53:56;;;;;;;10.50;2.30;;;12.00;99.90;;;;;;5107836;28;20223;-82
2021/11/13 04:56:23;;;;;;;14.80;2.33;;;11.90;99.90;;;;;;5106961;28;20218;-81
2021/11/13 04:58:50;;;;;;;6.90;2.20;;;11.90;99.90;;;;;;5107545;28;20257;-80
2021/11/13 05:01:17;;;;;;;9.33;2.47;;;11.90;99.90;;;;;;5107819;28;20216;-80
2021/11/13 05:03:44;;;;;;;9.87;2.77;;;11.80;99.90;;;;;;5108190;28;20200;-84
2021/11/13 05:06:10;;;;;;;15.53;3.67;;;11.80;99.90;;;;;;5107683;28;20203;-81
2021/11/13 05:08:37;;;;;;;14.37;3.03;;;11.90;99.90;;;;;;5109093;28;20219;-83
2021/11/13 05:11:05;;;;;;;13.60;2.50;;;12.00;99.90;;;;;;5108200;28;20203;-82
2021/11/13 05:13:32;;;;;;;12.47;3.43;;;12.00;99.90;;;;;;5108241;28;20207;-82
2021/11/13 05:15:59;;;;;;;14.87;3.47;;;12.00;99.90;;;;;;5106916;28;20204;-83
2021/11/13 05:18:26;;;;;;;10.90;3.80;;;12.00;99.90;;;;;;5106162;28;20204;-84
2021/11/13 05:20:52;;;;;;;11.67;3.63;;;12.00;99.90;;;;;;5108680;28;20228;-83
2021/11/13 05:23:19;;;;;;;11.27;2.90;;;12.00;99.90;;;;;;5109980;28;20200;-81
2021/11/13 05:25:46;;;;;;;11.10;2.50;;;12.10;99.90;;;;;;5107832;28;20610;-84
2021/11/13 05:28:14;;;;;;;12.03;2.53;;;12.10;99.90;;;;;;5108367;28;20210;-80
2021/11/13 05:30:41;;;;;;;8.53;2.27;;;12.10;99.90;;;;;;5107591;28;20235;-83
2021/11/13 05:33:08;;;;;;;7.97;2.33;;;12.10;99.90;;;;;;5107435;28;20207;-82
2021/11/13 05:35:35;;;;;;;10.83;1.73;;;12.00;99.90;;;;;;5108102;28;20208;-82
2021/11/13 05:38:03;;;;;;;12.00;2.20;;;12.10;99.90;;;;;;5107144;28;20214;-83
2021/11/13 05:40:31;;;;;;;7.97;1.63;;;12.00;99.90;;;;;;5107422;28;20188;-81
2021/11/13 05:42:58;;;;;;;13.57;2.00;;;12.10;99.90;;;;;;5107119;28;20405;-81
2021/11/13 05:45:26;;;;;;;8.90;1.97;;;12.10;99.90;;;;;;5107267;28;20196;-83
2021/11/13 05:47:53;;;;;;;8.67;2.50;;;12.10;99.90;;;;;;5106314;28;20219;-82
2021/11/13 05:50:20;;;;;;;7.70;1.93;;;12.00;99.90;;;;;;5106707;28;20236;-83
2021/11/13 05:52:50;;;;;;;8.70;1.90;;;12.00;99.90;;;;;;5107454;28;20506;-81
2021/11/13 05:55:17;;;;;;;3.50;1.20;;;12.00;99.90;;;;;;5106063;28;20274;-81
2021/11/13 05:57:45;;;;;;;7.37;1.80;;;12.00;99.90;;;;;;5107452;28;20257;-82
2021/11/13 06:00:15;;;;;;;7.17;1.70;;;11.90;99.90;;;;;;5107193;28;20196;-81
2021/11/13 06:02:43;;;;;;;6.83;2.07;;;12.00;99.90;;;;;;5107812;28;20290;-82
2021/11/13 06:05:10;;;;;;;8.30;2.23;;;12.00;99.90;;;;;;5107298;28;20200;-80
2021/11/13 06:07:38;;;;;;;7.77;2.30;;;12.00;99.90;;;;;;5106434;28;20200;-81
2021/11/13 06:10:06;;;;;;;5.30;1.27;;;12.00;99.90;;;;;;5110525;28;20222;-82
2021/11/13 06:12:33;;;;;;;4.33;1.70;;;12.00;99.90;;;;;;5111113;28;20441;-81
2021/11/13 06:15:00;;;;;;;6.60;1.40;;;12.00;99.90;;;;;;5111432;28;20211;-81
2021/11/13 06:17:28;;;;;;;5.93;1.70;;;11.90;99.90;;;;;;5111651;28;20199;-81
2021/11/13 06:19:57;;;;;;;6.83;1.60;;;11.90;99.90;;;;;;5111380;28;20227;-85
2021/11/13 06:22:24;;;;;;;6.57;1.87;;;11.90;99.90;;;;;;5109867;28;20215;-85
2021/11/13 06:24:51;;;;;;;5.43;1.50;;;11.90;99.90;;;;;;5109818;28;20195;-84
2021/11/13 06:27:18;;;;;;;8.57;1.60;;;11.90;99.90;;;;;;5110283;28;20196;-81
2021/11/13 06:29:46;;;;;;;8.27;1.90;;;11.90;99.90;;;;;;5109787;28;20216;-81
2021/11/13 06:32:13;;;;;;;4.43;1.80;;;11.90;99.90;;;;;;5110219;28;20367;-82
2021/11/13 06:34:40;;;;;;;5.77;1.40;;;11.90;99.90;;;;;;5108980;28;20251;-81
2021/11/13 06:37:09;;;;;;;3.27;1.20;;;11.80;99.90;;;;;;5108068;28;20196;-83
2021/11/13 06:39:36;;;;;;;7.77;1.77;;;11.80;99.90;;;;;;5108861;28;20567;-83
2021/11/13 06:42:04;;;;;;;3.67;1.30;;;11.80;99.90;;;;;;5108627;28;20200;-80
2021/11/13 06:44:31;;;;;;;6.60;1.37;;;11.70;99.90;;;;;;5109518;28;20196;-81
2021/11/13 06:46:58;;;;;;;3.33;1.40;;;11.70;99.90;;;;;;5110396;28;20602;-82
2021/11/13 06:49:26;;;;;;;4.53;1.40;;;11.70;99.90;;;;;;5109296;28;20233;-81
2021/11/13 06:51:53;;;;;;;6.70;1.50;;;11.70;99.90;;;;;;5110470;28;20560;-81
2021/11/13 06:54:21;;;;;;;4.30;1.40;;;11.70;99.90;;;;;;5108984;28;20200;-81
2021/11/13 06:56:49;;;;;;;5.60;1.00;;;11.70;99.90;;;;;;5110000;28;20623;-83
2021/11/13 06:59:16;;;;;;;4.87;1.10;;;11.70;99.90;;;;;;5110168;28;20215;-83
2021/11/13 07:01:43;;;;;;;2.50;1.10;;;11.60;99.90;;;;;;5109924;28;20502;-83
2021/11/13 07:04:09;;;;;;;2.47;1.10;;;11.60;99.90;;;;;;5108450;28;20208;-83
2021/11/13 07:06:36;;;;;;;3.43;1.40;;;11.50;99.90;;;;;;5109470;28;20196;-83
2021/11/13 07:09:04;;;;;;;2.03;0.90;;;11.50;99.90;;;;;;5109565;28;20521;-82
2021/11/13 07:11:32;;;;;;;3.43;1.50;;;11.50;99.90;;;;;;5108203;28;20315;-82
2021/11/13 07:13:59;;;;;;;1.70;0.77;;;11.40;99.90;;;;;;5109115;28;20203;-83
2021/11/13 07:16:26;;;;;;;2.13;1.07;;;11.40;99.90;;;;;;5109097;28;20207;-83
2021/11/13 07:18:53;;;;;;;4.40;1.77;;;11.40;99.90;;;;;;5109621;28;20203;-82
2021/11/13 07:21:20;;;;;;;3.03;1.37;;;11.40;99.90;;;;;;5109677;28;20228;-83
2021/11/13 07:23:46;;;;;;;2.57;1.30;;;11.40;99.90;;;;;;5108109;28;20229;-83
2021/11/13 07:26:14;;;;;;;4.37;1.63;;;11.40;99.90;;;;;;5107432;28;20215;-83
2021/11/13 07:28:45;;;;;;;3.10;1.33;;;11.40;99.90;;;;;;5108353;28;20226;-82
2021/11/13 07:31:16;;;;;;;1.63;1.27;;;11.40;99.90;;;;;;5108696;28;20232;-81
2021/11/13 07:33:44;;;;;;;2.23;1.30;;;11.40;99.90;;;;;;5110671;28;20612;-82
2021/11/13 07:36:12;;;;;;;2.90;1.50;;;11.40;99.90;;;;;;5110295;28;20188;-81
2021/11/13 07:38:39;;;;;;;7.47;3.37;;;11.40;99.90;;;;;;5109081;28;20219;-81
2021/11/13 07:41:07;;;;;;;6.47;2.73;;;11.40;99.90;;;;;;5109906;28;20211;-82
2021/11/13 07:43:34;;;;;;;5.77;2.60;;;11.40;99.90;;;;;;5109030;28;20208;-81
2021/11/13 07:46:03;;;;;;;7.83;2.50;;;11.50;99.90;;;;;;5109137;28;20200;-83
2021/11/13 07:48:30;;;;;;;4.63;2.90;;;11.50;99.90;;;;;;5110570;28;20192;-83
2021/11/13 07:50:57;;;;;;;4.93;2.80;;;11.50;99.90;;;;;;5109134;28;20231;-81
2021/11/13 07:53:24;;;;;;;4.27;2.97;;;11.40;99.90;;;;;;5109636;28;20503;-82
2021/11/13 07:55:51;;;;;;;3.23;2.43;;;11.40;99.90;;;;;;5110072;28;20192;-82
2021/11/13 07:58:19;;;;;;;2.60;2.40;;;11.40;99.90;;;;;;5108919;28;20211;-80
2021/11/13 08:00:48;;;;;;;3.10;2.80;;;11.40;99.90;;;;;;5109544;28;20207;-83
2021/11/13 08:03:17;;;;;;;4.63;3.20;;;11.40;99.90;;;;;;5109715;28;20211;-82
2021/11/13 08:05:45;;;;;;;4.93;3.17;;;11.40;99.90;;;;;;5110350;28;20207;-81
2021/11/13 08:08:11;;;;;;;3.37;2.53;;;11.40;99.90;;;;;;5109775;28;20207;-82
2021/11/13 08:10:41;;;;;;;2.47;2.23;;;11.40;99.90;;;;;;5108920;28;20300;-81
2021/11/13 08:13:09;;;;;;;4.47;2.77;;;11.40;99.90;;;;;;5110385;28;20283;-82
2021/11/13 08:15:36;;;;;;;4.10;2.27;;;11.50;99.90;;;;;;5110162;28;20200;-82
2021/11/13 08:18:03;;;;;;;6.33;2.90;;;11.50;99.90;;;;;;5111996;28;20964;-82
2021/11/13 08:20:32;;;;;;;5.47;3.13;;;11.60;99.90;;;;;;5109829;28;20327;-82
2021/11/13 08:23:00;;;;;;;6.87;4.23;;;11.70;99.90;;;;;;5108273;28;20196;-82
2021/11/13 08:25:27;;;;;;;5.87;3.60;;;11.70;99.90;;;;;;5109098;28;20203;-85
2021/11/13 08:27:54;;;;;;;5.23;3.83;;;11.80;99.90;;;;;;5107904;28;20222;-80
2021/11/13 08:30:22;;;;;;;6.70;4.30;;;11.80;99.90;;;;;;5107495;28;20231;-80
2021/11/13 08:32:50;;;;;;;8.67;4.30;;;11.90;99.90;;;;;;5090341;28;20203;-80
2021/11/13 08:35:18;;;;;;;9.53;5.30;;;12.00;99.90;;;;;;5107145;28;20215;-80
2021/11/13 08:37:46;;;;;;;8.17;4.43;;;12.00;99.90;;;;;;5107011;28;20615;-82
2021/11/13 08:40:15;;;;;;;8.40;4.73;;;12.10;99.90;;;;;;5107338;28;20492;-84
2021/11/13 08:42:42;;;;;;;10.33;4.73;;;12.10;99.90;;;;;;5106221;28;20344;-81
2021/11/13 08:45:12;;;;;;;10.10;4.00;;;12.20;99.90;;;;;;5107165;28;20484;-81
2021/11/13 08:47:39;;;;;;;6.93;4.10;;;12.20;99.90;;;;;;5101730;28;20210;-79
2021/11/13 08:50:09;;;;;;;9.13;3.83;;;12.20;99.90;;;;;;5106190;28;20234;-81
2021/11/13 08:52:36;;;;;;;7.10;2.90;;;12.20;99.90;;;;;;5106966;28;20196;-85
2021/11/13 08:55:05;;;;;;;9.83;3.57;;;12.30;99.90;;;;;;5106769;28;20609;-80
2021/11/13 08:57:32;;;;;;;4.80;2.93;;;12.30;99.90;;;;;;5106033;28;20214;-80
2021/11/13 08:59:59;;;;;;;8.60;3.73;;;12.30;99.90;;;;;;5107506;28;20195;-80
2021/11/13 09:02:26;;;;;;;8.03;3.40;;;12.40;99.90;;;;;;5107034;28;20211;-81
2021/11/13 09:04:55;;;;;;;8.47;3.17;;;12.40;99.90;;;;;;5107610;28;20602;-82
2021/11/13 09:07:23;;;;;;;4.40;2.50;;;12.40;99.90;;;;;;5106436;28;20203;-81
2021/11/13 09:09:50;;;;;;;7.37;3.10;;;12.40;99.90;;;;;;5106911;28;20215;-81
2021/11/13 09:12:24;;;;;;;8.20;3.53;;;12.40;99.90;;;;;;5106378;28;20786;-80
2021/11/13 09:14:53;;;;;;;6.23;3.13;;;12.40;99.90;;;;;;5107141;28;20199;-81
2021/11/13 09:17:20;;;;;;;5.23;2.87;;;12.40;99.90;;;;;;5107622;28;20204;-81
2021/11/13 09:19:48;;;;;;;7.53;3.53;;;12.30;99.90;;;;;;5107747;28;20267;-80
2021/11/13 09:22:15;;;;;;;5.47;3.03;;;12.30;99.90;;;;;;5106700;28;20210;-79
2021/11/13 09:24:42;;;;;;;11.90;5.23;;;12.30;99.90;;;;;;5107418;28;20207;-80
2021/11/13 09:27:09;;;;;;;9.20;5.40;;;12.30;99.90;;;;;;5107247;28;20607;-82
2021/11/13 09:29:37;;;;;;;8.97;3.80;;;12.30;99.90;;;;;;5106594;28;20211;-81
2021/11/13 09:32:05;;;;;;;9.13;3.33;;;12.30;99.90;;;;;;5106759;28;20207;-81
2021/11/13 09:34:32;;;;;;;8.20;3.63;;;12.20;99.90;;;;;;5105859;28;20219;-82
2021/11/13 09:36:59;;;;;;;5.60;2.80;;;12.20;99.90;;;;;;5106180;28;20199;-82
2021/11/13 09:39:26;;;;;;;5.70;2.87;;;12.20;99.90;;;;;;5106631;28;20204;-81
2021/11/13 09:41:53;;;;;;;5.73;3.40;;;12.20;99.90;;;;;;5106913;28;20204;-82
2021/11/13 09:44:20;;;;;;;4.57;3.00;;;12.20;99.90;;;;;;5108187;28;20207;-81
2021/11/13 09:46:50;;;;;;;6.23;2.53;;;12.20;99.90;;;;;;5115498;27;20356;-83
2021/11/13 09:49:18;;;;;;;3.57;2.10;;;12.20;99.90;;;;;;5130155;27;20223;-84
2021/11/13 09:51:47;;;;;;;4.87;1.70;;;12.30;99.90;;;;;;5130341;27;20220;-82
2021/11/13 09:54:15;;;;;;;4.23;1.70;;;12.40;99.90;;;;;;5112205;27;20299;-81
2021/11/13 09:56:42;;;;;;;3.13;1.23;;;12.50;99.90;;;;;;5112542;28;20301;-83
2021/11/13 09:59:08;;;;;;;3.20;0.97;;;12.50;99.90;;;;;;5110874;28;20215;-81
2021/11/13 10:01:35;;;;;;;4.47;1.30;;;12.60;99.90;;;;;;5111109;28;20207;-83
2021/11/13 10:04:04;;;;;;;3.37;1.10;;;12.50;99.90;;;;;;5112514;28;20200;-81
2021/11/13 10:06:31;;;;;;;5.23;1.40;;;12.60;99.90;;;;;;5111352;28;20784;-84
2021/11/13 10:08:58;;;;;;;4.70;1.20;;;12.60;99.90;;;;;;5111063;28;20208;-83
2021/11/13 10:11:28;;;;;;;7.77;2.43;;;12.60;99.90;;;;;;5110008;28;20228;-81
2021/11/13 10:13:57;;;;;;;7.97;1.73;;;12.60;99.90;;;;;;5110215;28;20576;-81
2021/11/13 10:16:31;;;;;;;7.03;1.67;;;12.70;99.90;;;;;;5109644;28;20203;-79
2021/11/13 10:18:58;;;;;;;5.53;1.57;;;12.80;99.90;;;;;;5109599;28;20203;-79
2021/11/13 10:21:30;;;;;;;8.73;1.63;;;12.80;99.90;;;;;;5108949;28;20238;-83
2021/11/13 10:24:01;;;;;;;9.13;2.13;;;12.90;99.90;;;;;;5108796;28;20402;-82
2021/11/13 10:26:31;;;;;;;5.37;1.77;;;12.80;99.90;;;;;;5109036;28;20344;-82
2021/11/13 10:29:02;;;;;;;3.37;1.17;;;12.90;99.90;;;;;;5108469;28;20200;-81
2021/11/13 10:31:32;;;;;;;5.17;1.20;;;12.90;99.90;;;;;;5109204;28;20299;-81
2021/11/13 10:34:02;;;;;;;3.27;1.20;;;12.90;99.90;;;;;;5109162;28;20287;-81
2021/11/13 10:36:33;;;;;;;6.80;1.17;;;13.00;99.90;;;;;;5108115;28;20208;-81
2021/11/13 10:39:05;;;;;;;3.73;0.97;;;13.10;99.90;;;;;;5109246;28;20230;-81
2021/11/13 10:41:41;;;;;;;2.57;1.00;;;13.20;99.90;;;;;;5109088;28;20204;-81
2021/11/13 10:44:07;;;;;;;3.57;1.43;;;13.20;99.90;;;;;;5109950;28;20194;-81
2021/11/13 10:46:34;;;;;;;1.33;0.73;;;13.20;99.90;;;;;;5108541;28;20202;-81
2021/11/13 10:49:01;;;;;;;2.93;0.70;;;13.10;99.90;;;;;;5109304;28;20695;-80
2021/11/13 10:51:31;;;;;;;2.77;1.00;;;13.10;99.90;;;;;;5109934;28;20227;-80
2021/11/13 10:54:08;;;;;;;3.73;0.90;;;13.20;99.90;;;;;;5108895;28;20583;-81
2021/11/13 10:56:44;;;;;;;4.27;1.23;;;13.30;99.90;;;;;;5107220;28;20235;-79
2021/11/13 10:59:11;;;;;;;3.33;0.90;;;13.50;99.90;;;;;;5109169;28;20209;-81
2021/11/13 11:01:40;;;;;;;4.90;1.20;;;13.50;99.90;;;;;;5108677;28;20203;-81
2021/11/13 11:04:10;;;;;;;3.87;1.20;;;13.60;99.90;;;;;;5108771;28;20646;-81
2021/11/13 11:06:41;;;;;;;4.67;1.10;;;13.70;99.90;;;;;;5108428;28;20207;-80
2021/11/13 11:09:23;;;;;;;4.77;1.17;;;13.80;99.90;;;;;;5109074;28;20192;-82
2021/11/13 11:11:52;;;;;;;2.17;0.90;;;13.80;99.90;;;;;;5107889;28;20234;-79
2021/11/13 11:14:20;;;;;;;6.00;1.10;;;13.70;99.90;;;;;;5108369;28;20626;-81
2021/11/13 11:16:51;;;;;;;4.27;1.03;;;13.80;99.90;;;;;;5107961;28;20223;-82
2021/11/13 11:19:19;;;;;;;4.33;1.00;;;13.90;99.90;;;;;;5108205;28;20272;-83
2021/11/13 11:21:52;;;;;;;3.83;1.17;;;13.90;99.90;;;;;;5107520;28;20204;-81
2021/11/13 11:24:22;;;;;;;6.33;0.90;;;13.90;99.90;;;;;;5106888;28;20211;-83
2021/11/13 11:26:55;;;;;;;2.90;1.10;;;13.90;99.90;;;;;;5107579;28;20319;-81
2021/11/13 11:29:22;;;;;;;1.17;0.70;;;13.90;99.90;;;;;;5107162;28;20275;-80
2021/11/13 11:31:51;;;;;;;6.13;1.10;;;13.80;99.90;;;;;;5107744;28;20226;-81
2021/11/13 11:34:23;;;;;;;4.40;0.97;;;13.70;99.90;;;;;;5107632;28;20204;-81
2021/11/13 11:36:51;;;;;;;2.40;0.70;;;13.70;99.90;;;;;;5108246;28;20603;-80
2021/11/13 11:39:18;;;;;;;3.73;0.93;;;13.60;99.90;;;;;;5106827;28;20536;-79
2021/11/13 11:41:46;;;;;;;3.83;1.20;;;13.50;99.90;;;;;;5107880;28;20196;-80
2021/11/13 11:44:15;;;;;;;1.40;0.60;;;13.50;99.90;;;;;;5107758;28;20224;-81
2021/11/13 11:46:42;;;;;;;2.67;0.77;;;13.50;99.90;;;;;;5106573;28;20688;-80
2021/11/13 11:49:11;;;;;;;1.67;0.90;;;13.60;99.90;;;;;;5107351;28;20742;-80
2021/11/13 11:51:37;;;;;;;3.37;0.70;;;13.60;99.90;;;;;;5107799;28;20230;-80
2021/11/13 11:54:08;;;;;;;1.40;0.60;;;13.70;99.90;;;;;;5107796;28;20865;-82
2021/11/13 11:56:36;;;;;;;2.47;0.67;;;13.80;99.90;;;;;;5108334;28;20248;-82
2021/11/13 11:59:04;;;;;;;2.50;0.70;;;13.80;99.90;;;;;;5107099;28;20207;-82
2021/11/13 12:01:33;;;;;;;2.93;1.00;;;13.90;99.90;;;;;;5108931;28;20768;-82
2021/11/13 12:04:24;;;;;;;4.33;1.20;;;14.10;99.90;;;;;;5327408;22;20191;-81
2021/11/13 12:06:54;;;;;;;6.23;1.30;;;14.20;99.90;;;;;;5054594;28;20213;-81
2021/11/13 12:09:24;;;;;;;5.80;1.17;;;14.30;99.90;;;;;;5067066;28;20250;-80
2021/11/13 12:12:12;;;;;;;4.40;1.00;;;14.30;99.90;;;;;;5065863;28;20229;-80
2021/11/13 12:14:39;;;;;;;3.63;0.90;;;14.30;99.90;;;;;;5066119;28;20208;-80
2021/11/13 12:17:31;;;;;;;2.70;1.17;;;14.30;99.90;;;;;;5066438;28;20312;-80
2021/11/13 12:20:25;;;;;;;3.43;1.13;;;14.30;99.90;;;;;;5065657;28;20208;-79
2021/11/13 12:22:57;;;;;;;2.13;0.80;;;14.30;99.90;;;;;;5067091;28;20200;-81
2021/11/13 12:25:29;;;;;;;3.47;0.97;;;14.20;99.90;;;;;;5066485;28;20495;-80
2021/11/13 12:28:15;;;;;;;2.57;1.10;;;14.20;99.90;;;;;;5065520;28;20212;-80
2021/11/13 12:30:57;;;;;;;2.17;0.90;;;14.20;99.90;;;;;;5066599;28;20189;-80
2021/11/13 12:33:56;;;;;;;3.73;0.90;;;14.20;99.90;;;;;;5066126;28;20223;-80
2021/11/13 12:36:29;;;;;;;3.93;1.07;;;14.20;99.90;;;;;;5046848;28;20225;-79
2021/11/13 12:39:10;;;;;;;6.33;1.13;;;14.20;99.90;;;;;;5049478;28;20288;-82
2021/11/13 12:41:56;;;;;;;3.53;0.90;;;14.10;99.90;;;;;;5051094;28;20212;-79
2021/11/13 12:44:28;;;;;;;2.33;0.70;;;14.10;99.90;;;;;;5067467;28;20291;-80
2021/11/13 12:47:05;;;;;;;2.43;0.80;;;14.10;99.90;;;;;;5066433;28;20196;-79